createdAt,value
2018-05-08T00:00:38.653Z,17.40
2018-05-08T00:02:43.873Z,17.40
2018-05-08T00:04:47.679Z,17.30
2018-05-08T00:06:52.172Z,17.30
2018-05-08T00:08:56.282Z,17.30
2018-05-08T00:10:59.721Z,17.30
2018-05-08T00:13:03.904Z,17.30
2018-05-08T00:15:07.419Z,17.30
2018-05-08T00:17:12.553Z,17.30
2018-05-08T00:19:15.941Z,17.30
2018-05-08T00:21:19.558Z,17.30
2018-05-08T00:23:23.935Z,17.20
2018-05-08T00:25:28.645Z,17.20
2018-05-08T00:27:32.045Z,17.30
2018-05-08T00:29:35.543Z,17.30
2018-05-08T00:31:39.061Z,17.30
2018-05-08T00:33:42.457Z,17.20
2018-05-08T00:35:45.900Z,17.20
2018-05-08T00:37:49.237Z,17.10
2018-05-08T00:39:52.673Z,17.10
2018-05-08T00:41:56.213Z,17.10
2018-05-08T00:43:59.711Z,17.10
2018-05-08T00:46:03.074Z,17.10
2018-05-08T00:48:06.466Z,17.00
2018-05-08T00:50:09.828Z,17.00
2018-05-08T00:52:13.892Z,17.00
2018-05-08T00:54:17.512Z,17.00
2018-05-08T00:56:21.640Z,17.00
2018-05-08T00:58:24.975Z,17.00
2018-05-08T01:00:29.489Z,17.10
2018-05-08T01:02:33.060Z,17.00
2018-05-08T01:04:37.196Z,17.00
2018-05-08T01:06:40.553Z,16.90
2018-05-08T01:08:43.886Z,17.00
2018-05-08T01:10:47.235Z,17.00
2018-05-08T01:12:50.585Z,16.90
2018-05-08T01:14:53.947Z,16.80
2018-05-08T01:16:57.339Z,16.90
2018-05-08T01:19:01.469Z,16.80
2018-05-08T01:21:04.796Z,16.80
2018-05-08T01:23:08.182Z,16.70
2018-05-08T01:25:11.547Z,16.70
2018-05-08T01:27:15.150Z,16.70
2018-05-08T01:29:18.552Z,16.70
2018-05-08T01:31:21.900Z,16.70
2018-05-08T01:33:25.236Z,16.70
2018-05-08T01:35:28.573Z,16.80
2018-05-08T01:37:31.911Z,16.70
2018-05-08T01:39:35.327Z,16.60
2018-05-08T01:41:38.636Z,16.60
2018-05-08T01:43:42.014Z,16.60
2018-05-08T01:45:45.382Z,16.60
2018-05-08T01:47:48.791Z,16.60
2018-05-08T01:49:52.142Z,16.50
2018-05-08T01:51:55.576Z,16.50
2018-05-08T01:53:58.924Z,16.50
2018-05-08T01:56:03.037Z,16.40
2018-05-08T01:58:06.379Z,16.40
2018-05-08T02:00:09.733Z,16.50
2018-05-08T02:02:13.047Z,16.50
2018-05-08T02:04:16.428Z,16.50
2018-05-08T02:06:19.796Z,16.50
2018-05-08T02:08:23.185Z,16.50
2018-05-08T02:10:26.559Z,16.40
2018-05-08T02:12:29.940Z,16.30
2018-05-08T02:14:33.265Z,16.30
2018-05-08T02:16:37.453Z,16.20
2018-05-08T02:18:40.813Z,16.20
2018-05-08T02:20:44.174Z,16.20
2018-05-08T02:22:47.500Z,16.30
2018-05-08T02:24:50.812Z,16.30
2018-05-08T02:26:54.171Z,16.30
2018-05-08T02:28:57.573Z,16.30
2018-05-08T02:31:00.936Z,16.30
2018-05-08T02:33:04.410Z,16.30
2018-05-08T02:35:07.774Z,16.20
2018-05-08T02:37:11.083Z,16.20
2018-05-08T02:39:15.182Z,16.10
2018-05-08T02:41:18.484Z,16.10
2018-05-08T02:43:21.850Z,16.10
2018-05-08T02:45:25.241Z,16.10
2018-05-08T02:47:28.559Z,16.00
2018-05-08T02:49:31.925Z,16.10
2018-05-08T02:51:35.238Z,16.00
2018-05-08T02:53:38.584Z,16.00
2018-05-08T02:55:41.935Z,16.00
2018-05-08T02:57:46.183Z,15.90
2018-05-08T02:59:49.556Z,15.90
2018-05-08T03:01:52.925Z,15.90
2018-05-08T03:03:57.111Z,16.00
2018-05-08T03:06:00.585Z,15.90
2018-05-08T03:08:03.929Z,16.00
2018-05-08T03:10:07.270Z,15.90
2018-05-08T03:12:11.736Z,15.90
2018-05-08T03:14:15.163Z,15.80
2018-05-08T03:16:18.602Z,15.80
2018-05-08T03:18:22.519Z,15.70
2018-05-08T03:20:25.951Z,15.70
2018-05-08T03:22:29.433Z,15.70
2018-05-08T03:24:33.675Z,15.50
2018-05-08T03:26:37.082Z,15.50
2018-05-08T03:28:40.443Z,15.60
2018-05-08T03:30:43.789Z,15.50
2018-05-08T03:32:47.163Z,15.50
2018-05-08T03:34:50.489Z,15.60
2018-05-08T03:36:53.856Z,15.50
2018-05-08T03:38:57.275Z,15.50
2018-05-08T03:41:00.680Z,15.50
2018-05-08T03:43:04.002Z,15.40
2018-05-08T03:45:07.389Z,15.40
2018-05-08T03:47:10.744Z,15.30
2018-05-08T03:49:14.074Z,15.30
2018-05-08T03:51:17.486Z,15.40
2018-05-08T03:53:20.789Z,15.30
2018-05-08T03:55:24.079Z,15.30
2018-05-08T03:57:27.496Z,15.30
2018-05-08T03:59:30.920Z,15.20
2018-05-08T04:01:52.679Z,15.10
2018-05-08T04:04:13.623Z,15.10
2018-05-08T04:09:13.164Z,15.10
2018-05-08T04:11:18.267Z,15.00
2018-05-08T04:13:21.626Z,15.00
2018-05-08T04:15:24.953Z,15.00
2018-05-08T04:17:28.288Z,15.00
2018-05-08T04:19:31.629Z,15.10
2018-05-08T04:21:34.961Z,15.10
2018-05-08T04:23:38.297Z,15.00
2018-05-08T04:25:41.618Z,15.10
2018-05-08T04:27:44.931Z,15.10
2018-05-08T04:29:48.265Z,15.10
2018-05-08T04:31:51.615Z,15.10
2018-05-08T04:33:55.874Z,15.00
2018-05-08T04:35:59.220Z,15.00
2018-05-08T04:38:04.359Z,15.10
2018-05-08T04:40:09.393Z,15.10
2018-05-08T04:42:13.478Z,15.20
2018-05-08T04:44:16.884Z,15.20
2018-05-08T04:46:20.224Z,15.20
2018-05-08T04:48:24.127Z,15.20
2018-05-08T04:50:27.569Z,15.30
2018-05-08T04:52:30.934Z,15.30
2018-05-08T04:54:34.304Z,15.30
2018-05-08T04:56:37.639Z,15.30
2018-05-08T04:58:41.733Z,15.30
2018-05-08T05:00:45.059Z,15.30
2018-05-08T05:02:48.517Z,15.40
2018-05-08T05:04:52.621Z,15.40
2018-05-08T05:06:56.050Z,15.40
2018-05-08T05:08:59.375Z,15.40
2018-05-08T05:11:02.746Z,15.40
2018-05-08T05:13:06.879Z,15.40
2018-05-08T05:15:10.216Z,15.40
2018-05-08T05:17:23.145Z,15.40
2018-05-08T05:19:26.991Z,15.50
2018-05-08T05:21:30.992Z,15.50
2018-05-08T05:23:34.428Z,15.60
2018-05-08T05:25:37.790Z,15.70
2018-05-08T05:27:41.171Z,15.80
2018-05-08T05:29:44.517Z,15.90
2018-05-08T05:31:47.843Z,15.90
2018-05-08T05:33:51.501Z,16.00
2018-05-08T05:35:55.308Z,16.00
2018-05-08T05:37:59.496Z,16.10
2018-05-08T05:40:05.325Z,16.10
2018-05-08T05:42:08.658Z,16.10
2018-05-08T05:44:12.001Z,16.20
2018-05-08T05:46:15.960Z,16.20
2018-05-08T05:48:19.833Z,16.20
2018-05-08T05:50:23.227Z,16.30
2018-05-08T05:52:26.652Z,16.30
2018-05-08T05:54:30.240Z,16.40
2018-05-08T05:56:33.612Z,16.40
2018-05-08T05:58:36.999Z,16.40
2018-05-08T06:00:40.322Z,16.40
2018-05-08T06:02:43.650Z,16.50
2018-05-08T06:04:47.258Z,16.60
2018-05-08T06:06:50.623Z,16.70
2018-05-08T06:08:54.066Z,16.70
2018-05-08T06:10:57.720Z,16.80
2018-05-08T06:13:01.088Z,16.80
2018-05-08T06:15:04.453Z,16.90
2018-05-08T06:17:07.912Z,16.90
2018-05-08T06:19:11.232Z,17.00
2018-05-08T06:21:14.569Z,17.10
2018-05-08T06:23:17.981Z,17.10
2018-05-08T06:25:22.056Z,17.30
2018-05-08T06:27:25.478Z,17.30
2018-05-08T06:29:29.277Z,17.30
2018-05-08T06:31:32.730Z,17.30
2018-05-08T06:33:36.206Z,17.40
2018-05-08T06:35:39.540Z,17.40
2018-05-08T06:37:42.858Z,17.50
2018-05-08T06:39:46.198Z,17.60
2018-05-08T06:41:49.522Z,17.70
2018-05-08T06:43:52.931Z,17.80
2018-05-08T06:45:56.316Z,17.90
2018-05-08T06:48:00.525Z,17.90
2018-05-08T06:50:03.874Z,17.90
2018-05-08T06:52:07.279Z,17.90
2018-05-08T06:54:10.607Z,18.00
2018-05-08T06:56:13.964Z,18.00
2018-05-08T06:58:17.260Z,18.10
2018-05-08T07:00:20.573Z,18.10
2018-05-08T07:02:23.893Z,18.20
2018-05-08T07:04:27.239Z,18.30
2018-05-08T07:06:30.578Z,18.30
2018-05-08T07:08:34.025Z,18.40
2018-05-08T07:10:37.356Z,18.50
2018-05-08T07:12:40.731Z,18.60
2018-05-08T07:14:44.080Z,18.60
2018-05-08T07:16:47.430Z,18.70
2018-05-08T07:18:50.823Z,18.80
2018-05-08T07:20:54.165Z,18.80
2018-05-08T07:22:57.539Z,18.90
2018-05-08T07:25:00.862Z,18.90
2018-05-08T07:27:04.202Z,18.90
2018-05-08T07:29:07.549Z,19.00
2018-05-08T07:31:10.984Z,19.00
2018-05-08T07:33:15.129Z,19.20
2018-05-08T07:35:18.524Z,19.20
2018-05-08T07:37:21.873Z,19.20
2018-05-08T07:39:25.289Z,19.30
2018-05-08T07:41:29.460Z,19.50
2018-05-08T07:43:32.791Z,19.50
2018-05-08T07:45:36.144Z,19.60
2018-05-08T07:47:40.225Z,19.70
2018-05-08T07:49:43.612Z,19.70
2018-05-08T07:51:47.121Z,19.80
2018-05-08T07:53:50.398Z,19.80
2018-05-08T07:55:53.800Z,19.90
2018-05-08T07:57:57.221Z,19.90
2018-05-08T08:00:00.609Z,20.00
2018-05-08T08:02:04.006Z,20.10
2018-05-08T08:04:08.154Z,20.10
2018-05-08T08:06:11.517Z,20.20
2018-05-08T08:08:14.880Z,20.30
2018-05-08T08:10:18.307Z,20.40
2018-05-08T08:12:22.434Z,20.40
2018-05-08T08:14:26.703Z,20.50
2018-05-08T08:16:30.293Z,20.50
2018-05-08T08:18:33.781Z,20.60
2018-05-08T08:20:37.461Z,20.70
2018-05-08T08:22:40.830Z,20.70
2018-05-08T08:24:45.112Z,20.90
2018-05-08T08:26:49.376Z,20.90
2018-05-08T08:28:52.938Z,20.90
2018-05-08T08:30:56.381Z,21.00
2018-05-08T08:32:59.728Z,21.10
2018-05-08T08:35:03.837Z,21.30
2018-05-08T08:37:07.254Z,21.30
2018-05-08T08:39:11.417Z,21.20
2018-05-08T08:41:14.750Z,21.20
2018-05-08T08:43:18.951Z,21.30
2018-05-08T08:45:23.402Z,21.30
2018-05-08T08:47:26.751Z,21.30
2018-05-08T08:49:30.059Z,21.40
2018-05-08T08:51:33.423Z,21.40
2018-05-08T08:53:36.749Z,21.60
2018-05-08T08:55:41.302Z,21.70
2018-05-08T08:57:46.601Z,21.80
2018-05-08T08:59:50.004Z,21.80
2018-05-08T09:01:53.354Z,21.90
2018-05-08T09:03:56.767Z,22.00
2018-05-08T09:06:00.148Z,22.10
2018-05-08T09:08:03.503Z,22.20
2018-05-08T09:10:07.630Z,22.20
2018-05-08T09:12:10.997Z,22.30
2018-05-08T09:14:14.355Z,22.40
2018-05-08T09:16:17.721Z,22.50
2018-05-08T09:18:21.082Z,22.50
2018-05-08T09:20:24.527Z,22.50
2018-05-08T09:22:28.027Z,22.60
2018-05-08T09:24:32.135Z,22.80
2018-05-08T09:26:35.784Z,22.70
2018-05-08T09:28:39.377Z,22.80
2018-05-08T09:30:43.633Z,22.90
2018-05-08T09:32:47.403Z,23.00
2018-05-08T09:34:50.975Z,23.00
2018-05-08T09:36:54.708Z,23.10
2018-05-08T09:38:58.244Z,23.10
2018-05-08T09:41:01.759Z,23.30
2018-05-08T09:43:05.995Z,23.40
2018-05-08T09:45:09.392Z,23.40
2018-05-08T09:47:12.878Z,23.40
2018-05-08T09:49:16.282Z,23.40
2018-05-08T09:51:19.827Z,23.50
2018-05-08T09:53:23.256Z,23.50
2018-05-08T09:55:27.475Z,23.70
2018-05-08T09:57:31.229Z,23.70
2018-05-08T09:59:34.612Z,23.70
2018-05-08T10:01:38.024Z,23.70
2018-05-08T10:03:41.408Z,23.80
2018-05-08T10:05:46.089Z,24.00
2018-05-08T10:07:49.459Z,24.00
2018-05-08T10:09:53.579Z,24.20
2018-05-08T10:11:57.835Z,24.20
2018-05-08T10:14:01.256Z,24.20
2018-05-08T10:16:10.526Z,24.20
2018-05-08T10:18:13.990Z,24.30
2018-05-08T10:20:17.529Z,24.30
2018-05-08T10:22:20.843Z,24.30
2018-05-08T10:24:24.199Z,24.50
2018-05-08T10:26:27.587Z,24.50
2018-05-08T10:28:31.778Z,24.60
2018-05-08T10:30:35.187Z,24.60
2018-05-08T10:32:40.047Z,24.70
2018-05-08T10:34:43.643Z,24.60
2018-05-08T10:36:47.085Z,24.60
2018-05-08T10:38:50.541Z,24.70
2018-05-08T10:40:54.212Z,24.70
2018-05-08T10:42:57.609Z,24.70
2018-05-08T10:45:01.059Z,24.80
2018-05-08T10:47:04.600Z,24.80
2018-05-08T10:49:08.085Z,24.90
2018-05-08T10:51:11.433Z,24.80
2018-05-08T10:53:14.790Z,24.80
2018-05-08T10:55:18.229Z,24.90
2018-05-08T10:57:32.530Z,24.90
2018-05-08T10:59:36.025Z,25.00
2018-05-08T11:01:40.185Z,25.30
2018-05-08T11:03:43.463Z,25.20
2018-05-08T11:05:46.849Z,25.30
2018-05-08T11:07:50.214Z,25.20
2018-05-08T11:09:53.572Z,25.20
2018-05-08T11:11:56.900Z,25.30
2018-05-08T11:14:00.909Z,25.40
2018-05-08T11:16:04.307Z,25.50
2018-05-08T11:18:07.641Z,25.50
2018-05-08T11:20:11.008Z,25.50
2018-05-08T11:22:14.392Z,25.50
2018-05-08T11:24:17.801Z,25.60
2018-05-08T11:26:21.153Z,25.70
2018-05-08T11:28:25.252Z,25.70
2018-05-08T11:30:28.812Z,25.70
2018-05-08T11:32:32.251Z,25.80
2018-05-08T11:34:35.652Z,25.80
2018-05-08T11:36:39.465Z,25.80
2018-05-08T11:38:42.956Z,25.70
2018-05-08T11:40:46.358Z,25.80
2018-05-08T11:42:49.841Z,25.80
2018-05-08T11:44:53.457Z,25.80
2018-05-08T11:46:56.874Z,25.90
2018-05-08T11:49:00.238Z,25.80
2018-05-08T11:51:03.694Z,25.90
2018-05-08T11:53:07.090Z,25.90
2018-05-08T11:55:10.545Z,26.00
2018-05-08T11:57:13.940Z,26.00
2018-05-08T11:59:17.443Z,26.00
2018-05-08T12:01:20.875Z,26.00
2018-05-08T12:03:25.137Z,26.00
2018-05-08T12:05:28.607Z,26.10
2018-05-08T12:07:31.979Z,26.00
2018-05-08T12:09:35.438Z,26.10
2018-05-08T12:12:05.239Z,26.10
2018-05-08T12:14:08.660Z,26.10
2018-05-08T12:16:12.044Z,26.20
2018-05-08T12:18:16.016Z,26.20
2018-05-08T12:20:19.448Z,26.20
2018-05-08T12:22:23.034Z,26.20
2018-05-08T12:24:26.520Z,26.20
2018-05-08T12:26:29.937Z,26.30
2018-05-08T12:28:33.408Z,26.60
2018-05-08T12:30:36.866Z,26.60
2018-05-08T12:32:40.311Z,26.60
2018-05-08T12:34:43.807Z,26.40
2018-05-08T12:36:49.335Z,26.40
2018-05-08T12:38:53.442Z,26.50
2018-05-08T12:40:56.854Z,26.50
2018-05-08T12:43:00.260Z,26.50
2018-05-08T12:45:03.939Z,26.60
2018-05-08T12:47:07.324Z,26.70
2018-05-08T12:49:10.835Z,26.80
2018-05-08T12:51:14.418Z,26.80
2018-05-08T12:53:17.798Z,26.80
2018-05-08T12:55:21.318Z,26.80
2018-05-08T12:57:24.736Z,26.80
2018-05-08T12:59:28.139Z,26.80
2018-05-08T13:01:31.912Z,26.80
2018-05-08T13:03:35.232Z,26.90
2018-05-08T13:05:38.616Z,26.90
2018-05-08T13:07:44.039Z,27.10
2018-05-08T13:09:47.447Z,27.20
2018-05-08T13:11:50.992Z,27.20
2018-05-08T13:13:54.394Z,27.10
2018-05-08T13:15:57.795Z,27.00
2018-05-08T13:18:01.148Z,27.00
2018-05-08T13:20:04.648Z,27.00
2018-05-08T13:22:08.104Z,27.00
2018-05-08T13:24:11.530Z,27.00
2018-05-08T13:26:15.652Z,27.00
2018-05-08T13:28:19.026Z,27.00
2018-05-08T13:30:22.445Z,27.10
2018-05-08T13:32:25.843Z,27.10
2018-05-08T13:34:29.303Z,27.10
2018-05-08T13:36:32.740Z,27.20
2018-05-08T13:38:36.115Z,27.30
2018-05-08T13:40:39.552Z,27.30
2018-05-08T13:42:43.135Z,27.40
2018-05-08T13:44:46.519Z,27.40
2018-05-08T13:46:49.944Z,27.60
2018-05-08T13:48:53.405Z,27.50
2018-05-08T13:50:56.817Z,27.60
2018-05-08T13:53:00.189Z,27.50
2018-05-08T13:55:03.669Z,27.60
2018-05-08T13:57:07.065Z,27.60
2018-05-08T13:59:10.650Z,27.70
2018-05-08T14:01:13.995Z,27.70
2018-05-08T14:03:17.355Z,27.70
2018-05-08T14:05:20.798Z,27.80
2018-05-08T14:07:24.362Z,27.80
2018-05-08T14:09:27.757Z,27.80
2018-05-08T14:11:31.093Z,27.70
2018-05-08T14:13:34.470Z,27.70
2018-05-08T14:15:37.832Z,27.70
2018-05-08T14:17:41.389Z,27.70
2018-05-08T14:19:44.831Z,27.70
2018-05-08T14:21:48.235Z,27.60
2018-05-08T14:23:51.700Z,27.70
2018-05-08T14:25:55.235Z,27.70
2018-05-08T14:27:58.878Z,27.70
2018-05-08T14:30:02.989Z,27.60
2018-05-08T14:32:06.383Z,27.60
2018-05-08T14:34:09.860Z,27.60
2018-05-08T14:36:14.259Z,27.80
2018-05-08T14:38:17.668Z,27.80
2018-05-08T14:40:21.838Z,27.60
2018-05-08T14:42:25.230Z,27.60
2018-05-08T14:44:28.685Z,27.70
2018-05-08T14:46:32.305Z,28.00
2018-05-08T14:48:35.632Z,28.00
2018-05-08T14:50:39.413Z,28.00
2018-05-08T14:52:42.883Z,27.90
2018-05-08T14:54:46.341Z,27.80
2018-05-08T14:56:50.651Z,27.70
2018-05-08T14:58:54.093Z,27.60
2018-05-08T15:00:57.382Z,27.60
2018-05-08T15:03:00.812Z,27.70
2018-05-08T15:05:04.172Z,27.80
2018-05-08T15:07:07.632Z,27.70
2018-05-08T15:09:11.844Z,27.90
2018-05-08T15:11:15.948Z,27.90
2018-05-08T15:13:20.228Z,27.80
2018-05-08T15:15:23.675Z,27.80
2018-05-08T15:17:27.957Z,27.90
2018-05-08T15:19:31.467Z,27.90
2018-05-08T15:21:35.140Z,27.90
2018-05-08T15:23:38.878Z,27.70
2018-05-08T15:25:43.716Z,27.90
2018-05-08T15:27:47.916Z,28.00
2018-05-08T15:29:53.092Z,28.10
2018-05-08T15:31:58.045Z,28.10
2018-05-08T15:34:02.593Z,28.20
2018-05-08T15:36:07.557Z,28.10
2018-05-08T15:38:11.080Z,28.10
2018-05-08T15:40:16.692Z,28.10
2018-05-08T15:42:21.197Z,28.10
2018-05-08T15:44:25.565Z,28.20
2018-05-08T15:46:29.501Z,28.40
2018-05-08T15:48:33.171Z,28.50
2018-05-08T15:50:36.828Z,28.60
2018-05-08T15:52:40.359Z,28.90
2018-05-08T15:54:43.838Z,29.00
2018-05-08T15:56:47.183Z,29.30
2018-05-08T15:58:50.548Z,29.50
2018-05-08T16:00:53.935Z,29.80
2018-05-08T16:02:57.371Z,30.10
2018-05-08T16:05:00.767Z,30.20
2018-05-08T16:07:04.932Z,31.20
2018-05-08T16:09:08.281Z,31.10
2018-05-08T16:11:13.494Z,32.00
2018-05-08T16:13:17.645Z,32.30
2018-05-08T16:15:21.034Z,32.30
2018-05-08T16:17:24.477Z,32.50
2018-05-08T16:19:27.839Z,32.60
2018-05-08T16:21:31.283Z,32.50
2018-05-08T16:23:34.734Z,32.30
2018-05-08T16:25:38.156Z,32.10
2018-05-08T16:27:41.481Z,32.00
2018-05-08T16:29:44.853Z,31.90
2018-05-08T16:31:48.707Z,31.70
2018-05-08T16:33:52.194Z,31.60
2018-05-08T16:35:55.692Z,31.50
2018-05-08T16:37:59.124Z,31.40
2018-05-08T16:40:02.581Z,31.20
2018-05-08T16:42:06.064Z,31.00
2018-05-08T16:44:09.487Z,30.90
2018-05-08T16:46:12.900Z,30.80
2018-05-08T16:48:16.338Z,30.70
2018-05-08T16:50:19.714Z,30.60
2018-05-08T16:52:23.072Z,30.80
2018-05-08T16:54:26.550Z,31.00
2018-05-08T16:56:29.931Z,31.10
2018-05-08T16:58:33.733Z,31.20
2018-05-08T17:00:37.198Z,31.30
2018-05-08T17:02:40.735Z,31.40
2018-05-08T17:04:44.113Z,31.60
2018-05-08T17:06:47.543Z,31.90
2018-05-08T17:08:50.921Z,32.40
2018-05-08T17:10:54.346Z,33.00
2018-05-08T17:12:57.700Z,33.60
2018-05-08T17:15:01.140Z,34.80
2018-05-08T17:17:04.589Z,35.30
2018-05-08T17:19:08.023Z,35.40
2018-05-08T17:21:12.058Z,35.70
2018-05-08T17:23:15.425Z,35.70
2018-05-08T17:25:18.985Z,35.80
2018-05-08T17:27:22.345Z,35.70
2018-05-08T17:29:25.711Z,35.90
2018-05-08T17:31:29.121Z,36.40
2018-05-08T17:33:32.937Z,35.90
2018-05-08T17:35:37.068Z,35.20
2018-05-08T17:37:40.507Z,35.20
2018-05-08T17:39:43.923Z,35.90
2018-05-08T17:41:47.308Z,35.70
2018-05-08T17:43:50.899Z,34.80
2018-05-08T17:45:54.326Z,33.70
2018-05-08T17:47:57.716Z,32.90
2018-05-08T17:50:01.927Z,31.60
2018-05-08T17:52:05.344Z,31.60
2018-05-08T17:54:08.690Z,31.10
2018-05-08T17:56:12.090Z,30.70
2018-05-08T17:58:15.638Z,30.30
2018-05-08T18:00:19.603Z,29.80
2018-05-08T18:02:22.966Z,29.60
2018-05-08T18:04:26.419Z,29.30
2018-05-08T18:06:29.688Z,29.10
2018-05-08T18:08:33.108Z,28.70
2018-05-08T18:10:36.575Z,28.50
2018-05-08T18:12:40.872Z,28.30
2018-05-08T18:14:44.359Z,28.10
2018-05-08T18:16:48.575Z,27.70
2018-05-08T18:18:51.996Z,27.70
2018-05-08T18:20:55.564Z,27.60
2018-05-08T18:22:59.082Z,27.40
2018-05-08T18:25:02.938Z,27.20
2018-05-08T18:27:07.679Z,26.90
2018-05-08T18:29:12.751Z,26.90
2018-05-08T18:31:18.194Z,26.80
2018-05-08T18:33:26.371Z,26.70
2018-05-08T18:35:30.690Z,26.50
2018-05-08T18:37:34.239Z,26.40
2018-05-08T18:39:37.694Z,26.20
2018-05-08T18:41:42.068Z,26.10
2018-05-08T18:43:45.460Z,25.90
2018-05-08T18:45:48.997Z,25.80
2018-05-08T18:47:53.217Z,25.50
2018-05-08T18:49:57.348Z,25.40
2018-05-08T18:52:00.757Z,25.40
2018-05-08T18:54:04.198Z,25.30
2018-05-08T18:56:08.466Z,25.00
2018-05-08T18:58:11.984Z,25.00
2018-05-08T19:00:21.955Z,24.90
2018-05-08T19:02:29.000Z,24.60
2018-05-08T19:04:33.685Z,24.60
2018-05-08T19:06:37.937Z,24.50
2018-05-08T19:08:43.227Z,24.30
2018-05-08T19:10:46.755Z,24.30
2018-05-08T19:14:58.594Z,24.10
2018-05-08T19:17:03.338Z,24.00
2018-05-08T19:19:12.412Z,23.90
2018-05-08T19:21:16.750Z,23.80
2018-05-08T19:23:21.030Z,23.50
2018-05-08T19:25:27.455Z,23.40
2018-05-08T19:27:33.701Z,23.40
2018-05-08T19:29:42.682Z,23.40
2018-05-08T19:31:50.430Z,23.30
2018-05-08T19:33:55.431Z,23.20
2018-05-08T19:36:06.045Z,23.10
2018-05-08T19:38:15.704Z,23.10
2018-05-08T19:40:19.388Z,22.90
2018-05-08T19:42:24.662Z,22.90
2018-05-08T19:44:28.769Z,22.80
2018-05-08T19:46:33.212Z,22.70
2018-05-08T19:48:37.233Z,22.60
2018-05-08T19:50:41.999Z,22.50
2018-05-08T19:52:45.603Z,22.40
2018-05-08T19:54:49.129Z,22.40
2018-05-08T19:56:53.330Z,22.20
2018-05-08T19:58:56.754Z,22.10
2018-05-08T20:01:00.436Z,22.10
2018-05-08T20:03:04.643Z,22.00
2018-05-08T20:05:08.156Z,21.90
2018-05-08T20:07:12.258Z,21.80
2018-05-08T20:09:16.180Z,21.80
2018-05-08T20:11:21.781Z,21.80
2018-05-08T20:13:30.838Z,21.70
2018-05-08T20:15:34.601Z,21.70
2018-05-08T20:17:43.927Z,21.60
2018-05-08T20:19:47.607Z,21.60
2018-05-08T20:21:51.433Z,21.50
2018-05-08T20:23:55.512Z,21.40
2018-05-08T20:25:59.400Z,21.40
2018-05-08T20:28:03.222Z,21.50
2018-05-08T20:30:06.673Z,21.40
2018-05-08T20:32:10.607Z,21.30
2018-05-08T20:34:14.532Z,21.20
2018-05-08T20:36:19.658Z,21.20
2018-05-08T20:38:22.943Z,21.10
2018-05-08T20:40:26.512Z,21.00
2018-05-08T20:42:30.092Z,21.00
2018-05-08T20:44:33.501Z,20.90
2018-05-08T20:46:36.832Z,20.80
2018-05-08T20:48:42.441Z,20.80
2018-05-08T20:50:46.905Z,20.80
2018-05-08T20:52:54.240Z,20.80
2018-05-08T20:54:59.565Z,20.80
2018-05-08T20:57:03.041Z,20.70
2018-05-08T20:59:06.591Z,20.60
2018-05-08T21:01:10.227Z,20.60
2018-05-08T21:03:15.094Z,20.50
2018-05-08T21:05:19.043Z,20.50
2018-05-08T21:07:22.419Z,20.40
2018-05-08T21:09:25.797Z,20.30
2018-05-08T21:11:29.180Z,20.30
2018-05-08T21:13:32.604Z,20.30
2018-05-08T21:15:36.834Z,20.40
2018-05-08T21:17:41.055Z,20.40
2018-05-08T21:19:45.319Z,20.30
2018-05-08T21:21:48.743Z,20.30
2018-05-08T21:23:52.122Z,20.20
2018-05-08T21:25:55.601Z,20.20
2018-05-08T21:28:04.364Z,20.10
2018-05-08T21:30:13.794Z,20.00
2018-05-08T21:32:17.192Z,20.00
2018-05-08T21:34:21.801Z,19.90
2018-05-08T21:36:26.507Z,19.90
2018-05-08T21:38:29.943Z,19.90
2018-05-08T21:40:33.283Z,19.90
2018-05-08T21:42:36.865Z,19.90
2018-05-08T21:44:41.424Z,19.80
2018-05-08T21:46:44.992Z,19.80
2018-05-08T21:48:48.344Z,19.80
2018-05-08T21:50:51.756Z,19.80
2018-05-08T21:52:55.111Z,19.80
2018-05-08T21:54:59.298Z,19.80
2018-05-08T21:57:02.704Z,19.80
2018-05-08T21:59:06.052Z,19.80
2018-05-08T22:01:09.469Z,19.70
2018-05-08T22:03:12.826Z,19.70
2018-05-08T22:05:16.227Z,19.60
2018-05-08T22:07:20.290Z,19.60
2018-05-08T22:09:23.625Z,19.60
2018-05-08T22:11:27.003Z,19.60
2018-05-08T22:13:30.335Z,19.70
2018-05-08T22:15:33.706Z,19.70
2018-05-08T22:17:37.183Z,19.60
2018-05-08T22:19:40.544Z,19.60
2018-05-08T22:21:43.949Z,19.60
2018-05-08T22:23:47.497Z,19.60
2018-05-08T22:25:50.838Z,19.50
2018-05-08T22:27:54.933Z,19.30
2018-05-08T22:29:58.312Z,19.30
2018-05-08T22:32:01.686Z,19.40
2018-05-08T22:34:05.052Z,19.20
2018-05-08T22:36:08.580Z,19.20
2018-05-08T22:38:11.912Z,19.20
2018-05-08T22:40:16.085Z,19.20
2018-05-08T22:42:19.496Z,19.10
2018-05-08T22:44:22.875Z,19.10
2018-05-08T22:46:26.297Z,19.10
2018-05-08T22:48:29.737Z,19.00
2018-05-08T22:50:33.349Z,19.00
2018-05-08T22:52:36.716Z,19.00
2018-05-08T22:54:40.136Z,19.10
2018-05-08T22:56:43.469Z,19.00
2018-05-08T22:58:46.824Z,19.00
2018-05-08T23:00:50.325Z,18.90
2018-05-08T23:02:54.464Z,19.00
2018-05-08T23:04:57.848Z,19.00
2018-05-08T23:07:01.221Z,19.10
2018-05-08T23:09:04.668Z,19.00
2018-05-08T23:11:07.990Z,18.90
2018-05-08T23:13:11.450Z,18.90
2018-05-08T23:15:14.788Z,18.80
2018-05-08T23:17:18.937Z,18.80
2018-05-08T23:19:22.448Z,18.80
2018-05-08T23:21:25.812Z,18.80
2018-05-08T23:23:29.119Z,18.70
2018-05-08T23:25:33.284Z,18.70
2018-05-08T23:27:36.610Z,18.70
2018-05-08T23:29:39.956Z,18.70
2018-05-08T23:31:43.383Z,18.70
2018-05-08T23:33:46.694Z,18.70
2018-05-08T23:35:50.075Z,18.70
2018-05-08T23:37:54.526Z,18.70
2018-05-08T23:39:57.878Z,18.70
2018-05-08T23:42:01.247Z,18.70
2018-05-08T23:44:04.647Z,18.70
2018-05-08T23:46:08.025Z,18.60
2018-05-08T23:48:11.633Z,18.60
2018-05-08T23:50:15.015Z,18.60
2018-05-08T23:52:18.452Z,18.50
2018-05-08T23:54:21.872Z,18.50
2018-05-08T23:56:26.105Z,18.50
2018-05-08T23:58:29.482Z,18.40
